N419JD KRUQ-KMKJ
Flight info
| Callsign | N419JD |
|---|---|
| Flight time | 0h 55m |
| Altitude | 5500 |
| Route | RUFFN PSK |
| Aircraft | C182/L-SDGRY/S |
Departure
| Time | 2026-04-12 15:07 |
|---|---|
| Airport | Mid-Carolina Regional Airport (KRUQ) |
Arrival
| Time | 2026-04-12 16:03 |
|---|---|
| Airport | Mountain Empire Airport (KMKJ) |
| Time | Latitude | Longitude | Altitude | Speed | Heading |
|---|---|---|---|---|---|
| 2026-04-12 15:02 | 35.64053 | -80.51950 | 774 ft | 0 kts | 79° |
| 2026-04-12 15:03 | 35.64052 | -80.51948 | 774 ft | 1 kts | 144° |
| 2026-04-12 15:04 | 35.64040 | -80.51967 | 774 ft | 6 kts | 234° |
| 2026-04-12 15:04 | 35.64033 | -80.52034 | 774 ft | 8 kts | 279° |
| 2026-04-12 15:04 | 35.64044 | -80.52102 | 774 ft | 8 kts | 246° |
| 2026-04-12 15:04 | 35.64020 | -80.52124 | 775 ft | 0 kts | 197° |
| 2026-04-12 15:05 | 35.64019 | -80.52124 | 775 ft | 1 kts | 196° |
| 2026-04-12 15:05 | 35.63981 | -80.52134 | 775 ft | 10 kts | 178° |
| 2026-04-12 15:06 | 35.63908 | -80.52161 | 775 ft | 12 kts | 191° |
| 2026-04-12 15:06 | 35.63852 | -80.52213 | 776 ft | 10 kts | 275° |
| 2026-04-12 15:06 | 35.63862 | -80.52262 | 777 ft | 8 kts | 289° |
| 2026-04-12 15:06 | 35.63984 | -80.52242 | 777 ft | 38 kts | 16° |
| 2026-04-12 15:07 | 35.64221 | -80.52162 | 786 ft | 66 kts | 15° |
| 2026-04-12 15:07 | 35.64674 | -80.52082 | 1052 ft | 64 kts | 7° |
| 2026-04-12 15:07 | 35.65156 | -80.52121 | 1236 ft | 74 kts | 360° |
| 2026-04-12 15:07 | 35.65701 | -80.52171 | 1386 ft | 82 kts | 358° |
| 2026-04-12 15:08 | 35.66303 | -80.52230 | 1555 ft | 91 kts | 358° |
| 2026-04-12 15:08 | 35.66969 | -80.52298 | 1734 ft | 102 kts | 357° |
| 2026-04-12 15:08 | 35.67684 | -80.52376 | 1895 ft | 105 kts | 356° |
| 2026-04-12 15:08 | 35.68447 | -80.52458 | 2061 ft | 112 kts | 356° |
| 2026-04-12 15:09 | 35.69199 | -80.52543 | 2254 ft | 105 kts | 357° |
| 2026-04-12 15:09 | 35.69943 | -80.52624 | 2463 ft | 112 kts | 358° |
| 2026-04-12 15:09 | 35.70735 | -80.52711 | 2672 ft | 117 kts | 354° |
| 2026-04-12 15:09 | 35.71553 | -80.52805 | 2856 ft | 119 kts | 354° |
| 2026-04-12 15:10 | 35.72399 | -80.52900 | 3067 ft | 126 kts | 354° |
| 2026-04-12 15:10 | 35.73265 | -80.52995 | 3262 ft | 121 kts | 353° |
| 2026-04-12 15:10 | 35.74079 | -80.53084 | 3476 ft | 120 kts | 354° |
| 2026-04-12 15:10 | 35.74938 | -80.53179 | 3650 ft | 126 kts | 352° |
| 2026-04-12 15:11 | 35.75771 | -80.53271 | 3844 ft | 116 kts | 352° |
| 2026-04-12 15:11 | 35.76548 | -80.53359 | 4026 ft | 109 kts | 352° |
| 2026-04-12 15:11 | 35.77340 | -80.53444 | 4226 ft | 121 kts | 352° |
| 2026-04-12 15:11 | 35.78159 | -80.53540 | 4421 ft | 115 kts | 352° |
| 2026-04-12 15:12 | 35.78940 | -80.53627 | 4620 ft | 114 kts | 352° |
| 2026-04-12 15:12 | 35.79748 | -80.53716 | 4844 ft | 122 kts | 352° |
| 2026-04-12 15:12 | 35.80037 | -80.53749 | 4889 ft | 123 kts | 352° |
| 2026-04-12 15:12 | 35.80516 | -80.53799 | 5016 ft | 122 kts | 352° |
| 2026-04-12 15:13 | 35.81366 | -80.53895 | 5212 ft | 122 kts | 352° |
| 2026-04-12 15:13 | 35.82191 | -80.53988 | 5399 ft | 115 kts | 351° |
| 2026-04-12 15:13 | 35.83007 | -80.54082 | 5489 ft | 125 kts | 352° |
| 2026-04-12 15:13 | 35.83895 | -80.54179 | 5506 ft | 132 kts | 353° |
| 2026-04-12 15:14 | 35.84835 | -80.54283 | 5503 ft | 140 kts | 352° |
| 2026-04-12 15:14 | 35.85808 | -80.54392 | 5511 ft | 142 kts | 352° |
| 2026-04-12 15:14 | 35.86810 | -80.54502 | 5511 ft | 145 kts | 352° |
| 2026-04-12 15:14 | 35.87829 | -80.54617 | 5493 ft | 145 kts | 352° |
| 2026-04-12 15:15 | 35.88831 | -80.54727 | 5503 ft | 145 kts | 352° |
| 2026-04-12 15:15 | 35.89824 | -80.54838 | 5499 ft | 141 kts | 352° |
| 2026-04-12 15:15 | 35.90820 | -80.54950 | 5494 ft | 144 kts | 352° |
| 2026-04-12 15:15 | 35.91803 | -80.55059 | 5488 ft | 140 kts | 352° |
| 2026-04-12 15:16 | 35.92774 | -80.55167 | 5486 ft | 140 kts | 352° |
| 2026-04-12 15:16 | 35.93740 | -80.55276 | 5490 ft | 140 kts | 352° |
| 2026-04-12 15:16 | 35.94697 | -80.55383 | 5485 ft | 140 kts | 351° |
| 2026-04-12 15:16 | 35.95677 | -80.55494 | 5485 ft | 142 kts | 352° |
| 2026-04-12 15:17 | 35.96658 | -80.55603 | 5480 ft | 141 kts | 352° |
| 2026-04-12 15:17 | 35.97630 | -80.55712 | 5479 ft | 140 kts | 352° |
| 2026-04-12 15:17 | 35.98598 | -80.55820 | 5480 ft | 140 kts | 352° |
| 2026-04-12 15:17 | 35.99573 | -80.55929 | 5480 ft | 140 kts | 351° |
| 2026-04-12 15:18 | 36.00543 | -80.56038 | 5511 ft | 138 kts | 351° |
| 2026-04-12 15:18 | 36.01482 | -80.56143 | 5678 ft | 133 kts | 351° |
| 2026-04-12 15:18 | 36.02394 | -80.56245 | 5838 ft | 130 kts | 351° |
| 2026-04-12 15:18 | 36.03282 | -80.56345 | 6005 ft | 127 kts | 351° |
| 2026-04-12 15:19 | 36.04163 | -80.56444 | 6175 ft | 127 kts | 351° |
| 2026-04-12 15:19 | 36.05032 | -80.56542 | 6345 ft | 125 kts | 351° |
| 2026-04-12 15:19 | 36.05896 | -80.56639 | 6515 ft | 124 kts | 351° |
| 2026-04-12 15:19 | 36.06749 | -80.56735 | 6682 ft | 122 kts | 351° |
| 2026-04-12 15:20 | 36.07576 | -80.56828 | 6852 ft | 120 kts | 351° |
| 2026-04-12 15:20 | 36.08410 | -80.56922 | 6970 ft | 124 kts | 351° |
| 2026-04-12 15:20 | 36.09308 | -80.57024 | 6978 ft | 134 kts | 351° |
| 2026-04-12 15:20 | 36.10262 | -80.57130 | 6988 ft | 140 kts | 351° |
| 2026-04-12 15:21 | 36.11258 | -80.57242 | 6990 ft | 146 kts | 351° |
| 2026-04-12 15:21 | 36.12263 | -80.57353 | 6991 ft | 144 kts | 351° |
| 2026-04-12 15:21 | 36.13263 | -80.57465 | 6993 ft | 144 kts | 351° |
| 2026-04-12 15:21 | 36.14256 | -80.57577 | 7001 ft | 143 kts | 351° |
| 2026-04-12 15:22 | 36.15247 | -80.57689 | 6997 ft | 143 kts | 351° |
| 2026-04-12 15:22 | 36.16233 | -80.57799 | 6999 ft | 142 kts | 351° |
| 2026-04-12 15:22 | 36.17225 | -80.57911 | 7006 ft | 143 kts | 351° |
| 2026-04-12 15:22 | 36.18217 | -80.58022 | 7008 ft | 143 kts | 351° |
| 2026-04-12 15:23 | 36.19206 | -80.58134 | 7013 ft | 143 kts | 351° |
| 2026-04-12 15:23 | 36.20196 | -80.58245 | 7016 ft | 143 kts | 351° |
| 2026-04-12 15:23 | 36.21186 | -80.58357 | 7024 ft | 143 kts | 351° |
| 2026-04-12 15:23 | 36.22181 | -80.58469 | 7025 ft | 144 kts | 351° |
| 2026-04-12 15:24 | 36.23176 | -80.58581 | 7025 ft | 144 kts | 351° |
| 2026-04-12 15:24 | 36.24172 | -80.58693 | 7031 ft | 144 kts | 351° |
| 2026-04-12 15:24 | 36.25169 | -80.58806 | 7033 ft | 144 kts | 351° |
| 2026-04-12 15:24 | 36.26152 | -80.58916 | 7033 ft | 143 kts | 351° |
| 2026-04-12 15:25 | 36.27144 | -80.59028 | 7034 ft | 143 kts | 351° |
| 2026-04-12 15:25 | 36.28133 | -80.59140 | 7037 ft | 143 kts | 351° |
| 2026-04-12 15:25 | 36.29123 | -80.59252 | 7040 ft | 143 kts | 351° |
| 2026-04-12 15:25 | 36.30117 | -80.59364 | 7050 ft | 144 kts | 351° |
| 2026-04-12 15:26 | 36.31114 | -80.59476 | 7047 ft | 144 kts | 351° |
| 2026-04-12 15:26 | 36.32112 | -80.59589 | 7052 ft | 144 kts | 351° |
| 2026-04-12 15:26 | 36.33103 | -80.59701 | 7057 ft | 143 kts | 351° |
| 2026-04-12 15:26 | 36.34098 | -80.59814 | 7060 ft | 144 kts | 351° |
| 2026-04-12 15:27 | 36.35098 | -80.59926 | 7063 ft | 144 kts | 351° |
| 2026-04-12 15:27 | 36.36091 | -80.60039 | 7064 ft | 143 kts | 351° |
| 2026-04-12 15:27 | 36.37079 | -80.60150 | 7070 ft | 142 kts | 351° |
| 2026-04-12 15:27 | 36.38069 | -80.60262 | 7073 ft | 143 kts | 351° |
| 2026-04-12 15:28 | 36.39063 | -80.60375 | 7073 ft | 143 kts | 351° |
| 2026-04-12 15:28 | 36.40036 | -80.60485 | 7074 ft | 142 kts | 351° |
| 2026-04-12 15:28 | 36.41027 | -80.60597 | 7074 ft | 143 kts | 351° |
| 2026-04-12 15:28 | 36.42019 | -80.60709 | 7073 ft | 143 kts | 351° |
| 2026-04-12 15:29 | 36.43012 | -80.60822 | 7069 ft | 143 kts | 351° |
| 2026-04-12 15:29 | 36.44001 | -80.60934 | 7068 ft | 142 kts | 351° |
| 2026-04-12 15:29 | 36.44990 | -80.61046 | 7073 ft | 143 kts | 351° |
| 2026-04-12 15:29 | 36.45979 | -80.61163 | 7071 ft | 142 kts | 348° |
| 2026-04-12 15:30 | 36.46943 | -80.61334 | 7072 ft | 142 kts | 348° |
| 2026-04-12 15:30 | 36.47934 | -80.61481 | 7071 ft | 143 kts | 348° |
| 2026-04-12 15:30 | 36.48926 | -80.61635 | 7071 ft | 143 kts | 348° |
| 2026-04-12 15:30 | 36.49915 | -80.61792 | 7074 ft | 143 kts | 348° |
| 2026-04-12 15:31 | 36.50904 | -80.61950 | 7069 ft | 143 kts | 348° |
| 2026-04-12 15:31 | 36.51892 | -80.62108 | 7072 ft | 143 kts | 348° |
| 2026-04-12 15:31 | 36.52880 | -80.62267 | 7069 ft | 143 kts | 348° |
| 2026-04-12 15:31 | 36.53865 | -80.62424 | 7069 ft | 142 kts | 348° |
| 2026-04-12 15:32 | 36.54854 | -80.62583 | 7067 ft | 144 kts | 348° |
| 2026-04-12 15:32 | 36.55832 | -80.62740 | 7063 ft | 143 kts | 348° |
| 2026-04-12 15:32 | 36.56818 | -80.62898 | 7060 ft | 143 kts | 348° |
| 2026-04-12 15:32 | 36.57805 | -80.63056 | 7059 ft | 143 kts | 348° |
| 2026-04-12 15:33 | 36.58793 | -80.63215 | 7053 ft | 143 kts | 348° |
| 2026-04-12 15:33 | 36.59777 | -80.63373 | 7054 ft | 142 kts | 348° |
| 2026-04-12 15:33 | 36.60759 | -80.63530 | 7047 ft | 143 kts | 348° |
| 2026-04-12 15:33 | 36.61743 | -80.63689 | 7041 ft | 143 kts | 348° |
| 2026-04-12 15:34 | 36.62725 | -80.63846 | 7034 ft | 142 kts | 348° |
| 2026-04-12 15:34 | 36.63708 | -80.64004 | 7027 ft | 142 kts | 348° |
| 2026-04-12 15:34 | 36.64681 | -80.64161 | 7015 ft | 142 kts | 348° |
| 2026-04-12 15:34 | 36.65661 | -80.64318 | 7020 ft | 142 kts | 348° |
| 2026-04-12 15:35 | 36.66636 | -80.64475 | 7026 ft | 144 kts | 348° |
| 2026-04-12 15:35 | 36.67626 | -80.64634 | 7025 ft | 143 kts | 348° |
| 2026-04-12 15:35 | 36.68618 | -80.64794 | 7095 ft | 147 kts | 347° |
| 2026-04-12 15:35 | 36.69653 | -80.64963 | 7036 ft | 149 kts | 348° |
| 2026-04-12 15:36 | 36.70673 | -80.65124 | 7081 ft | 147 kts | 347° |
| 2026-04-12 15:36 | 36.71694 | -80.65288 | 7035 ft | 146 kts | 348° |
| 2026-04-12 15:36 | 36.72692 | -80.65449 | 7036 ft | 144 kts | 347° |
| 2026-04-12 15:36 | 36.73679 | -80.65608 | 7041 ft | 142 kts | 348° |
| 2026-04-12 15:37 | 36.74662 | -80.65765 | 7050 ft | 144 kts | 347° |
| 2026-04-12 15:37 | 36.75663 | -80.65929 | 7043 ft | 144 kts | 346° |
| 2026-04-12 15:37 | 36.76678 | -80.66098 | 7022 ft | 147 kts | 348° |
| 2026-04-12 15:37 | 36.77690 | -80.66254 | 7039 ft | 146 kts | 347° |
| 2026-04-12 15:38 | 36.78702 | -80.66419 | 7021 ft | 147 kts | 347° |
| 2026-04-12 15:38 | 36.79726 | -80.66582 | 6995 ft | 146 kts | 348° |
| 2026-04-12 15:38 | 36.80738 | -80.66744 | 7010 ft | 147 kts | 347° |
| 2026-04-12 15:38 | 36.81733 | -80.66907 | 7002 ft | 144 kts | 347° |
| 2026-04-12 15:39 | 36.82731 | -80.67073 | 7000 ft | 147 kts | 347° |
| 2026-04-12 15:39 | 36.83740 | -80.67233 | 6987 ft | 149 kts | 347° |
| 2026-04-12 15:39 | 36.84770 | -80.67403 | 7014 ft | 152 kts | 347° |
| 2026-04-12 15:39 | 36.85807 | -80.67566 | 6990 ft | 146 kts | 348° |
| 2026-04-12 15:40 | 36.86804 | -80.67722 | 6992 ft | 143 kts | 347° |
| 2026-04-12 15:40 | 36.87787 | -80.67884 | 7003 ft | 142 kts | 348° |
| 2026-04-12 15:40 | 36.88779 | -80.68047 | 6991 ft | 145 kts | 347° |
| 2026-04-12 15:40 | 36.89769 | -80.68207 | 6993 ft | 143 kts | 348° |
| 2026-04-12 15:41 | 36.90755 | -80.68368 | 6993 ft | 143 kts | 347° |
| 2026-04-12 15:41 | 36.91743 | -80.68531 | 6990 ft | 142 kts | 347° |
| 2026-04-12 15:41 | 36.92732 | -80.68694 | 6999 ft | 148 kts | 348° |
| 2026-04-12 15:41 | 36.93744 | -80.68856 | 6993 ft | 145 kts | 348° |
| 2026-04-12 15:42 | 36.94731 | -80.69014 | 6998 ft | 141 kts | 347° |
| 2026-04-12 15:42 | 36.95705 | -80.69172 | 7001 ft | 141 kts | 347° |
| 2026-04-12 15:42 | 36.96676 | -80.69329 | 7005 ft | 140 kts | 347° |
| 2026-04-12 15:43 | 36.98620 | -80.69645 | 6986 ft | 148 kts | 347° |
| 2026-04-12 15:43 | 36.99631 | -80.69809 | 7011 ft | 145 kts | 347° |
| 2026-04-12 15:43 | 37.00645 | -80.69973 | 7014 ft | 150 kts | 348° |
| 2026-04-12 15:43 | 37.01691 | -80.70142 | 7017 ft | 151 kts | 347° |
| 2026-04-12 15:44 | 37.02748 | -80.70316 | 7014 ft | 152 kts | 347° |
| 2026-04-12 15:44 | 37.03781 | -80.70477 | 7016 ft | 148 kts | 347° |
| 2026-04-12 15:44 | 37.04786 | -80.70640 | 7022 ft | 144 kts | 347° |
| 2026-04-12 15:44 | 37.05786 | -80.70805 | 7016 ft | 145 kts | 347° |
| 2026-04-12 15:45 | 37.06758 | -80.71029 | 7007 ft | 138 kts | 332° |
| 2026-04-12 15:45 | 37.07489 | -80.71688 | 6939 ft | 125 kts | 304° |
| 2026-04-12 15:45 | 37.07861 | -80.72569 | 6774 ft | 107 kts | 279° |
| 2026-04-12 15:45 | 37.07919 | -80.73450 | 6603 ft | 98 kts | 259° |
| 2026-04-12 15:46 | 37.07728 | -80.74256 | 6446 ft | 97 kts | 243° |
| 2026-04-12 15:46 | 37.07147 | -80.75884 | 6177 ft | 108 kts | 244° |
| 2026-04-12 15:46 | 37.06835 | -80.76781 | 6037 ft | 116 kts | 243° |
| 2026-04-12 15:47 | 37.06504 | -80.77713 | 5901 ft | 119 kts | 243° |
| 2026-04-12 15:47 | 37.06165 | -80.78674 | 5721 ft | 123 kts | 243° |
| 2026-04-12 15:47 | 37.05832 | -80.79627 | 5709 ft | 120 kts | 243° |
| 2026-04-12 15:47 | 37.05496 | -80.80592 | 5673 ft | 119 kts | 245° |
| 2026-04-12 15:48 | 37.05166 | -80.81528 | 5668 ft | 121 kts | 243° |
| 2026-04-12 15:48 | 37.04836 | -80.82457 | 5682 ft | 114 kts | 242° |
| 2026-04-12 15:48 | 37.04498 | -80.83398 | 5661 ft | 124 kts | 243° |
| 2026-04-12 15:48 | 37.04171 | -80.84334 | 5690 ft | 114 kts | 242° |
| 2026-04-12 15:49 | 37.03851 | -80.85241 | 5693 ft | 120 kts | 243° |
| 2026-04-12 15:49 | 37.03505 | -80.86221 | 5688 ft | 117 kts | 243° |
| 2026-04-12 15:49 | 37.03170 | -80.87170 | 5689 ft | 116 kts | 243° |
| 2026-04-12 15:49 | 37.02847 | -80.88085 | 5699 ft | 117 kts | 242° |
| 2026-04-12 15:50 | 37.02511 | -80.89025 | 5677 ft | 117 kts | 243° |
| 2026-04-12 15:50 | 37.02192 | -80.89951 | 5684 ft | 115 kts | 244° |
| 2026-04-12 15:50 | 37.01866 | -80.90857 | 5649 ft | 116 kts | 242° |
| 2026-04-12 15:50 | 37.01551 | -80.91762 | 5669 ft | 113 kts | 243° |
| 2026-04-12 15:51 | 37.01234 | -80.92655 | 5687 ft | 113 kts | 242° |
| 2026-04-12 15:51 | 37.00916 | -80.93540 | 5686 ft | 114 kts | 243° |
| 2026-04-12 15:51 | 37.00588 | -80.94460 | 5676 ft | 117 kts | 243° |
| 2026-04-12 15:51 | 37.00254 | -80.95405 | 5665 ft | 119 kts | 243° |
| 2026-04-12 15:52 | 36.99936 | -80.96319 | 5674 ft | 114 kts | 243° |
| 2026-04-12 15:52 | 36.99620 | -80.97203 | 5653 ft | 106 kts | 242° |
| 2026-04-12 15:52 | 36.99329 | -80.98031 | 5659 ft | 103 kts | 242° |
| 2026-04-12 15:52 | 36.99037 | -80.98845 | 5663 ft | 103 kts | 242° |
| 2026-04-12 15:53 | 36.98744 | -80.99673 | 5663 ft | 107 kts | 242° |
| 2026-04-12 15:53 | 36.98436 | -81.00538 | 5666 ft | 111 kts | 242° |
| 2026-04-12 15:53 | 36.98122 | -81.01421 | 5664 ft | 110 kts | 243° |
| 2026-04-12 15:53 | 36.97811 | -81.02298 | 5663 ft | 111 kts | 242° |
| 2026-04-12 15:54 | 36.97496 | -81.03186 | 5661 ft | 112 kts | 242° |
| 2026-04-12 15:54 | 36.97183 | -81.04070 | 5677 ft | 110 kts | 242° |
| 2026-04-12 15:54 | 36.96978 | -81.04646 | 5677 ft | 110 kts | 242° |
| 2026-04-12 15:54 | 36.96568 | -81.05798 | 5680 ft | 110 kts | 242° |
| 2026-04-12 15:55 | 36.96298 | -81.06704 | 5671 ft | 114 kts | 250° |
| 2026-04-12 15:55 | 36.96078 | -81.07640 | 5573 ft | 108 kts | 248° |
| 2026-04-12 15:55 | 36.95861 | -81.08544 | 5431 ft | 106 kts | 248° |
| 2026-04-12 15:55 | 36.95644 | -81.09437 | 5282 ft | 106 kts | 246° |
| 2026-04-12 15:56 | 36.95495 | -81.10035 | 5172 ft | 113 kts | 248° |
| 2026-04-12 15:56 | 36.95261 | -81.11024 | 5081 ft | 117 kts | 249° |
| 2026-04-12 15:56 | 36.95035 | -81.11976 | 5101 ft | 113 kts | 249° |
| 2026-04-12 15:56 | 36.94816 | -81.12882 | 5076 ft | 106 kts | 249° |
| 2026-04-12 15:57 | 36.94617 | -81.13730 | 5132 ft | 109 kts | 250° |
| 2026-04-12 15:57 | 36.94374 | -81.14714 | 5011 ft | 118 kts | 251° |
| 2026-04-12 15:57 | 36.94153 | -81.15648 | 4875 ft | 107 kts | 248° |
| 2026-04-12 15:57 | 36.93943 | -81.16515 | 4770 ft | 109 kts | 249° |
| 2026-04-12 15:58 | 36.93723 | -81.17434 | 4646 ft | 110 kts | 249° |
| 2026-04-12 15:58 | 36.93497 | -81.18349 | 4497 ft | 110 kts | 247° |
| 2026-04-12 15:58 | 36.93274 | -81.19262 | 4541 ft | 120 kts | 246° |
| 2026-04-12 15:58 | 36.93055 | -81.20242 | 4503 ft | 105 kts | 249° |
| 2026-04-12 15:59 | 36.92861 | -81.21034 | 4500 ft | 86 kts | 249° |
| 2026-04-12 15:59 | 36.92698 | -81.21701 | 4502 ft | 77 kts | 245° |
| 2026-04-12 15:59 | 36.92533 | -81.22367 | 4464 ft | 85 kts | 246° |
| 2026-04-12 15:59 | 36.92357 | -81.23098 | 4391 ft | 92 kts | 249° |
| 2026-04-12 16:00 | 36.92161 | -81.23916 | 4286 ft | 104 kts | 250° |
| 2026-04-12 16:00 | 36.91942 | -81.24833 | 4193 ft | 115 kts | 248° |
| 2026-04-12 16:00 | 36.91703 | -81.25815 | 3978 ft | 118 kts | 249° |
| 2026-04-12 16:00 | 36.91472 | -81.26776 | 3800 ft | 110 kts | 248° |
| 2026-04-12 16:01 | 36.91261 | -81.27653 | 3674 ft | 107 kts | 249° |
| 2026-04-12 16:01 | 36.91050 | -81.28537 | 3518 ft | 103 kts | 249° |
| 2026-04-12 16:01 | 36.90842 | -81.29389 | 3376 ft | 102 kts | 251° |
| 2026-04-12 16:01 | 36.90640 | -81.30220 | 3245 ft | 98 kts | 251° |
| 2026-04-12 16:02 | 36.90444 | -81.31036 | 3095 ft | 95 kts | 252° |
| 2026-04-12 16:02 | 36.90256 | -81.31815 | 2946 ft | 91 kts | 253° |
| 2026-04-12 16:02 | 36.90083 | -81.32535 | 2805 ft | 83 kts | 252° |
| 2026-04-12 16:02 | 36.89925 | -81.33201 | 2695 ft | 80 kts | 252° |
| 2026-04-12 16:03 | 36.89755 | -81.33889 | 2574 ft | 87 kts | 254° |
| 2026-04-12 16:03 | 36.89600 | -81.34547 | 2506 ft | 65 kts | 253° |
| 2026-04-12 16:03 | 36.89487 | -81.34999 | 2515 ft | 45 kts | 253° |
| 2026-04-12 16:03 | 36.89412 | -81.35306 | 2532 ft | 26 kts | 252° |
| 2026-04-12 16:04 | 36.89362 | -81.35360 | 2537 ft | 8 kts | 167° |
| 2026-04-12 16:04 | 36.89342 | -81.35303 | 2533 ft | 10 kts | 77° |
| 2026-04-12 16:04 | 36.89364 | -81.35213 | 2524 ft | 12 kts | 73° |
| 2026-04-12 16:04 | 36.89391 | -81.35102 | 2517 ft | 14 kts | 73° |
| 2026-04-12 16:05 | 36.89423 | -81.34975 | 2515 ft | 16 kts | 72° |
| 2026-04-12 16:05 | 36.89456 | -81.34836 | 2507 ft | 17 kts | 73° |
| 2026-04-12 16:05 | 36.89491 | -81.34687 | 2501 ft | 18 kts | 73° |
| 2026-04-12 16:05 | 36.89526 | -81.34549 | 2500 ft | 15 kts | 72° |
| 2026-04-12 16:06 | 36.89553 | -81.34429 | 2499 ft | 13 kts | 75° |
| 2026-04-12 16:06 | 36.89561 | -81.34334 | 2499 ft | 11 kts | 110° |
| 2026-04-12 16:06 | 36.89560 | -81.34309 | 2499 ft | 0 kts | 79° |